createdAt,value
2023-12-20T00:01:39.980Z,78.93
2023-12-20T00:04:26.497Z,78.43
2023-12-20T00:07:07.130Z,82.40
2023-12-20T00:09:57.811Z,77.70
2023-12-20T00:12:58.855Z,78.93
2023-12-20T00:15:39.429Z,81.45
2023-12-20T00:18:21.969Z,79.30
2023-12-20T00:20:57.433Z,80.65
2023-12-20T00:23:38.717Z,78.95
2023-12-20T00:26:24.031Z,78.40
2023-12-20T00:29:05.851Z,79.57
2023-12-20T00:31:42.875Z,78.47
2023-12-20T00:34:19.613Z,79.95
2023-12-20T00:37:00.152Z,80.18
2023-12-20T00:39:48.202Z,82.28
2023-12-20T00:42:31.361Z,79.15
2023-12-20T00:45:16.094Z,85.85
2023-12-20T00:47:56.928Z,80.47
2023-12-20T00:50:37.780Z,81.10
2023-12-20T00:53:12.248Z,79.50
2023-12-20T00:55:59.223Z,75.80
2023-12-20T00:58:38.687Z,76.57
2023-12-20T01:01:14.236Z,75.72
2023-12-20T01:04:06.949Z,75.32
2023-12-20T01:06:57.678Z,74.68
2023-12-20T01:09:33.575Z,78.13
2023-12-20T01:12:21.719Z,78.97
2023-12-20T01:14:55.759Z,78.57
2023-12-20T01:17:44.127Z,80.45
2023-12-20T01:20:24.102Z,77.03
2023-12-20T01:23:02.900Z,77.72
2023-12-20T01:25:40.883Z,75.00
2023-12-20T01:28:24.532Z,76.80
2023-12-20T01:31:19.755Z,75.72
2023-12-20T01:33:59.787Z,77.68
2023-12-20T01:36:35.226Z,76.22
2023-12-20T01:39:24.775Z,73.97
2023-12-20T01:42:10.511Z,75.90
2023-12-20T01:44:58.783Z,77.78
2023-12-20T01:47:37.920Z,74.68
2023-12-20T01:50:27.572Z,73.50
2023-12-20T01:53:14.592Z,74.10
2023-12-20T01:56:04.092Z,72.45
2023-12-20T01:58:43.290Z,76.50
2023-12-20T02:01:39.586Z,77.82
2023-12-20T02:04:19.342Z,80.22
2023-12-20T02:07:03.920Z,83.95
2023-12-20T02:09:39.982Z,82.90
2023-12-20T02:12:16.633Z,74.63
2023-12-20T02:14:49.535Z,78.00
2023-12-20T02:17:35.747Z,79.53
2023-12-20T02:20:13.763Z,78.63
2023-12-20T02:23:04.767Z,74.90
2023-12-20T02:25:47.131Z,75.05
2023-12-20T02:28:27.181Z,74.40
2023-12-20T02:31:05.200Z,78.03
2023-12-20T02:33:40.227Z,73.45
2023-12-20T02:36:21.443Z,78.85
2023-12-20T02:39:10.064Z,74.90
2023-12-20T02:41:53.893Z,77.07
2023-12-20T02:44:32.010Z,77.70
2023-12-20T02:49:54.934Z,78.70
2023-12-20T02:52:34.074Z,76.30
2023-12-20T02:55:20.266Z,75.07
2023-12-20T02:57:52.588Z,77.55
2023-12-20T03:00:30.214Z,77.80
2023-12-20T03:03:18.849Z,75.60
2023-12-20T03:05:55.098Z,75.20
2023-12-20T03:08:31.870Z,76.65
2023-12-20T03:11:20.302Z,77.30
2023-12-20T03:14:02.027Z,73.75
2023-12-20T03:16:38.637Z,74.10
2023-12-20T03:19:18.174Z,76.40
2023-12-20T03:21:51.246Z,73.57
2023-12-20T03:24:30.907Z,74.03
2023-12-20T03:27:11.841Z,74.75
2023-12-20T03:29:59.790Z,71.95
2023-12-20T03:32:41.751Z,73.88
2023-12-20T03:35:30.569Z,71.95
2023-12-20T03:38:11.015Z,74.60
2023-12-20T03:41:05.413Z,75.03
2023-12-20T03:43:51.636Z,75.82
2023-12-20T03:46:23.957Z,76.15
2023-12-20T03:49:03.732Z,75.15
2023-12-20T03:51:47.280Z,78.60
2023-12-20T03:54:22.360Z,79.18
2023-12-20T03:57:04.484Z,78.47
2023-12-20T03:59:48.618Z,83.85
2023-12-20T04:02:27.597Z,80.90
2023-12-20T04:05:07.065Z,83.07
2023-12-20T04:07:52.139Z,83.22
2023-12-20T04:10:36.162Z,88.20
2023-12-20T04:13:26.028Z,85.50
2023-12-20T04:16:13.433Z,88.38
2023-12-20T04:18:52.661Z,85.55
2023-12-20T04:21:41.106Z,85.53
2023-12-20T04:24:17.795Z,83.18
2023-12-20T04:26:54.234Z,82.32
2023-12-20T04:29:36.462Z,81.95
2023-12-20T04:32:19.679Z,78.90
2023-12-20T04:34:57.710Z,78.90
2023-12-20T04:37:32.847Z,81.40
2023-12-20T04:40:09.344Z,78.43
2023-12-20T04:42:50.792Z,76.82
2023-12-20T04:45:27.560Z,77.63
2023-12-20T04:48:13.208Z,74.72
2023-12-20T04:51:06.716Z,74.45
2023-12-20T04:53:42.569Z,74.22
2023-12-20T04:56:21.400Z,74.03
2023-12-20T04:58:56.811Z,74.25
2023-12-20T05:01:38.122Z,72.68
2023-12-20T05:04:23.641Z,74.15
2023-12-20T05:07:00.075Z,72.93
2023-12-20T05:09:33.260Z,78.88
2023-12-20T05:12:10.856Z,82.15
2023-12-20T05:14:41.753Z,83.55
2023-12-20T05:20:04.035Z,81.45
2023-12-20T05:22:38.601Z,79.90
2023-12-20T05:25:28.835Z,82.35
2023-12-20T05:28:05.028Z,79.97
2023-12-20T05:30:53.526Z,80.25
2023-12-20T05:33:32.410Z,84.30
2023-12-20T05:36:18.124Z,83.20
2023-12-20T05:39:03.360Z,89.50
2023-12-20T05:41:47.766Z,90.47
2023-12-20T05:44:27.872Z,87.82
2023-12-20T05:47:12.834Z,88.10
2023-12-20T05:49:54.380Z,91.00
2023-12-20T05:52:45.473Z,88.30
2023-12-20T05:58:20.550Z,95.32
2023-12-20T06:00:56.319Z,94.82
2023-12-20T06:03:42.286Z,94.40
2023-12-20T06:06:21.162Z,94.90
2023-12-20T06:09:05.399Z,105.22
2023-12-20T06:11:50.002Z,97.10
2023-12-20T06:14:28.331Z,95.60
2023-12-20T06:17:05.599Z,91.80
2023-12-20T06:19:45.466Z,92.38
2023-12-20T06:22:27.422Z,98.85
2023-12-20T06:25:06.276Z,103.38
2023-12-20T06:27:58.140Z,113.28
2023-12-20T06:30:38.074Z,114.95
2023-12-20T06:33:21.615Z,115.30
2023-12-20T06:35:57.230Z,116.30
2023-12-20T06:38:32.649Z,117.63
2023-12-20T06:41:25.504Z,120.13
2023-12-20T06:44:02.140Z,117.00
2023-12-20T06:46:55.591Z,120.10
2023-12-20T06:49:31.034Z,126.13
2023-12-20T06:52:18.457Z,134.52
2023-12-20T06:54:58.170Z,129.60
2023-12-20T06:57:43.261Z,127.38
2023-12-20T07:00:29.544Z,130.65
2023-12-20T07:03:10.605Z,123.38
2023-12-20T07:05:46.293Z,124.03
2023-12-20T07:08:24.133Z,132.98
2023-12-20T07:11:05.280Z,129.52
2023-12-20T07:14:02.282Z,138.60
2023-12-20T07:16:41.010Z,141.40
2023-12-20T07:19:25.594Z,137.65
2023-12-20T07:22:05.412Z,138.35
2023-12-20T07:24:43.946Z,140.93
2023-12-20T07:27:23.515Z,145.27
2023-12-20T07:30:10.886Z,145.85
2023-12-20T07:32:51.046Z,138.40
2023-12-20T07:35:30.745Z,144.40
2023-12-20T07:38:13.172Z,140.40
2023-12-20T07:40:50.738Z,135.63
2023-12-20T07:43:22.501Z,133.65
2023-12-20T07:46:06.303Z,138.07
2023-12-20T07:48:45.494Z,144.70
2023-12-20T07:51:25.078Z,148.10
2023-12-20T07:54:01.466Z,144.65
2023-12-20T07:56:32.359Z,141.77
2023-12-20T08:01:57.976Z,126.53
2023-12-20T08:04:36.525Z,117.88
2023-12-20T08:07:19.026Z,110.00
2023-12-20T08:09:58.059Z,110.95
2023-12-20T08:12:29.173Z,110.20
2023-12-20T08:15:17.279Z,111.32
2023-12-20T08:18:03.540Z,106.97
2023-12-20T08:20:42.609Z,107.55
2023-12-20T08:23:33.263Z,115.05
2023-12-20T08:28:49.985Z,109.75
2023-12-20T08:31:29.916Z,107.55
2023-12-20T08:34:09.312Z,111.47
2023-12-20T08:36:54.486Z,133.85
2023-12-20T08:39:29.032Z,117.18
2023-12-20T08:42:11.910Z,147.55
2023-12-20T08:45:01.654Z,162.95
2023-12-20T08:47:42.410Z,150.95
2023-12-20T08:50:35.166Z,125.32
2023-12-20T08:53:22.186Z,113.35
2023-12-20T08:56:03.605Z,113.65
2023-12-20T08:58:45.999Z,118.07
2023-12-20T09:01:22.520Z,122.85
2023-12-20T09:03:58.048Z,116.97
2023-12-20T09:06:43.067Z,116.80
2023-12-20T09:09:16.851Z,113.32
2023-12-20T09:11:50.991Z,111.13
2023-12-20T09:14:33.470Z,109.28
2023-12-20T09:17:17.438Z,103.45
2023-12-20T09:19:58.201Z,104.30
2023-12-20T09:22:47.622Z,105.00
2023-12-20T09:25:27.528Z,99.10
2023-12-20T09:28:20.581Z,99.85
2023-12-20T09:30:59.897Z,97.05
2023-12-20T09:33:41.081Z,99.05
2023-12-20T09:36:15.901Z,103.45
2023-12-20T09:38:57.234Z,98.53
2023-12-20T09:41:41.414Z,102.13
2023-12-20T09:44:26.523Z,102.93
2023-12-20T09:47:12.968Z,103.50
2023-12-20T09:50:00.117Z,103.93
2023-12-20T09:52:38.730Z,105.57
2023-12-20T09:55:25.992Z,103.22
2023-12-20T09:58:05.362Z,101.35
2023-12-20T10:00:36.211Z,101.93
2023-12-20T10:03:21.673Z,99.78
2023-12-20T10:06:06.934Z,96.88
2023-12-20T10:08:48.501Z,98.18
2023-12-20T10:11:46.299Z,96.65
2023-12-20T10:14:17.149Z,97.35
2023-12-20T10:16:51.588Z,98.28
2023-12-20T10:19:26.151Z,98.47
2023-12-20T10:22:08.763Z,116.25
2023-12-20T10:24:49.211Z,97.63
2023-12-20T10:27:31.638Z,102.03
2023-12-20T10:30:26.855Z,102.95
2023-12-20T10:33:05.146Z,105.55
2023-12-20T10:35:45.460Z,114.20
2023-12-20T10:38:23.414Z,115.18
2023-12-20T10:41:05.290Z,118.10
2023-12-20T10:43:50.434Z,124.07
2023-12-20T10:46:26.659Z,121.82
2023-12-20T10:49:04.840Z,127.38
2023-12-20T10:51:52.583Z,126.22
2023-12-20T10:54:35.228Z,116.97
2023-12-20T10:57:35.241Z,109.72
2023-12-20T11:00:20.531Z,102.40
2023-12-20T11:03:06.994Z,106.35
2023-12-20T11:05:51.056Z,108.07
2023-12-20T11:08:36.150Z,116.10
2023-12-20T11:11:23.807Z,114.03
2023-12-20T11:14:10.648Z,107.07
2023-12-20T11:16:54.921Z,103.45
2023-12-20T11:19:33.593Z,101.72
2023-12-20T11:22:22.139Z,103.03
2023-12-20T11:25:00.872Z,101.80
2023-12-20T11:27:38.960Z,99.25
2023-12-20T11:30:22.435Z,95.00
2023-12-20T11:33:07.496Z,92.10
2023-12-20T11:35:45.682Z,90.18
2023-12-20T11:38:29.649Z,87.57
2023-12-20T11:41:10.375Z,89.88
2023-12-20T11:43:54.205Z,90.57
2023-12-20T11:46:29.260Z,89.05
2023-12-20T11:49:22.642Z,92.18
2023-12-20T11:51:57.122Z,91.65
2023-12-20T11:54:37.346Z,91.90
2023-12-20T11:57:26.357Z,90.93
2023-12-20T12:00:01.953Z,89.32
2023-12-20T12:03:11.775Z,93.15
2023-12-20T12:05:54.199Z,97.05
2023-12-20T12:08:33.059Z,99.38
2023-12-20T12:11:13.501Z,99.95
2023-12-20T12:13:47.829Z,101.18
2023-12-20T12:16:37.173Z,102.70
2023-12-20T12:19:14.307Z,99.05
2023-12-20T12:22:13.870Z,99.53
2023-12-20T12:24:59.956Z,100.20
2023-12-20T12:27:34.455Z,98.50
2023-12-20T12:30:21.096Z,102.68
2023-12-20T12:33:00.957Z,105.07
2023-12-20T12:35:36.698Z,107.45
2023-12-20T12:38:28.585Z,109.18
2023-12-20T12:41:02.818Z,109.60
2023-12-20T12:43:45.679Z,107.80
2023-12-20T12:46:25.500Z,105.93
2023-12-20T12:49:02.660Z,103.68
2023-12-20T12:52:03.287Z,111.53
2023-12-20T12:54:50.161Z,109.18
2023-12-20T12:57:25.631Z,112.35
2023-12-20T12:59:59.974Z,109.88
2023-12-20T13:02:39.262Z,112.35
2023-12-20T13:05:21.202Z,107.57
2023-12-20T13:08:03.009Z,109.13
2023-12-20T13:11:05.260Z,112.85
2023-12-20T13:13:48.153Z,118.38
2023-12-20T13:16:32.119Z,118.90
2023-12-20T13:19:11.775Z,123.32
2023-12-20T13:21:45.097Z,124.15
2023-12-20T13:24:23.477Z,120.03
2023-12-20T13:27:04.420Z,125.03
2023-12-20T13:32:17.997Z,119.55
2023-12-20T13:34:56.404Z,125.15
2023-12-20T13:37:39.063Z,126.65
2023-12-20T13:40:20.722Z,127.50
2023-12-20T13:43:09.293Z,123.53
2023-12-20T13:46:03.047Z,123.60
2023-12-20T13:48:37.342Z,124.53
2023-12-20T13:51:12.037Z,124.82
2023-12-20T13:53:46.146Z,128.10
2023-12-20T13:56:25.351Z,124.13
2023-12-20T14:01:46.092Z,122.70
2023-12-20T14:04:41.180Z,125.32
2023-12-20T14:07:26.138Z,130.23
2023-12-20T14:10:06.029Z,126.18
2023-12-20T14:12:45.046Z,129.65
2023-12-20T14:15:18.101Z,135.75
2023-12-20T14:17:48.926Z,130.52
2023-12-20T14:22:49.824Z,133.97
2023-12-20T14:25:20.568Z,135.90
2023-12-20T14:27:51.261Z,138.32
2023-12-20T14:30:25.086Z,141.27
2023-12-20T14:32:55.690Z,148.48
2023-12-20T14:35:27.861Z,143.63
2023-12-20T14:37:58.756Z,142.55
2023-12-20T14:40:29.359Z,146.60
2023-12-20T14:42:59.868Z,151.10
2023-12-20T14:45:34.949Z,144.10
2023-12-20T14:48:06.599Z,181.50
2023-12-20T14:50:38.376Z,172.10
2023-12-20T14:53:08.871Z,167.85
2023-12-20T14:55:40.900Z,169.57
2023-12-20T14:58:11.854Z,167.18
2023-12-20T15:03:17.929Z,152.93
2023-12-20T15:05:49.454Z,151.15
2023-12-20T15:08:20.133Z,155.82
2023-12-20T15:10:50.660Z,153.80
2023-12-20T15:13:21.386Z,158.38
2023-12-20T15:15:54.888Z,137.27
2023-12-20T15:18:25.781Z,110.30
2023-12-20T15:20:56.745Z,99.10
2023-12-20T15:25:58.090Z,100.35
2023-12-20T15:28:28.507Z,99.63
2023-12-20T15:31:01.837Z,95.13
2023-12-20T15:33:32.607Z,97.38
2023-12-20T15:36:03.166Z,96.75
2023-12-20T15:38:33.585Z,94.22
2023-12-20T15:41:04.596Z,97.40
2023-12-20T15:43:35.208Z,98.55
2023-12-20T15:46:18.316Z,95.03
2023-12-20T15:48:48.869Z,104.05
2023-12-20T15:51:19.460Z,111.07
2023-12-20T15:53:50.040Z,108.85
2023-12-20T15:56:20.895Z,104.95
2023-12-20T15:58:56.130Z,103.97
2023-12-20T16:01:29.187Z,100.97
2023-12-20T16:04:00.359Z,96.07
2023-12-20T16:06:31.600Z,97.97
2023-12-20T16:11:33.246Z,99.57
2023-12-20T16:14:03.655Z,97.57
2023-12-20T16:16:36.946Z,100.32
2023-12-20T16:19:07.413Z,101.32
2023-12-20T16:21:37.871Z,105.30
2023-12-20T16:24:09.798Z,97.75
2023-12-20T16:26:40.460Z,98.68
2023-12-20T16:29:11.597Z,101.13
2023-12-20T16:31:44.771Z,99.90
2023-12-20T16:34:15.369Z,98.32
2023-12-20T16:37:01.229Z,95.30
2023-12-20T16:39:32.763Z,99.35
2023-12-20T16:42:03.410Z,102.15
2023-12-20T16:44:34.373Z,106.28
2023-12-20T16:49:37.749Z,109.38
2023-12-20T16:52:09.047Z,113.22
2023-12-20T16:54:39.557Z,166.95
2023-12-20T16:57:10.256Z,169.95
2023-12-20T16:59:40.631Z,134.68
2023-12-20T17:02:13.956Z,155.68
2023-12-20T17:04:44.627Z,174.18
2023-12-20T17:07:15.140Z,143.30
2023-12-20T17:09:46.214Z,137.18
2023-12-20T17:14:51.682Z,141.40
2023-12-20T17:17:24.735Z,141.00
2023-12-20T17:19:55.199Z,154.60
2023-12-20T17:22:26.032Z,194.13
2023-12-20T17:24:56.563Z,166.60
2023-12-20T17:27:27.402Z,129.18
2023-12-20T17:29:57.833Z,120.40
2023-12-20T17:32:30.895Z,121.05
2023-12-20T17:35:01.533Z,119.03
2023-12-20T17:37:32.043Z,124.97
2023-12-20T17:40:05.639Z,118.55
2023-12-20T17:42:36.059Z,118.72
2023-12-20T17:45:07.113Z,119.18
2023-12-20T17:47:40.426Z,122.30
2023-12-20T17:50:13.751Z,122.40
2023-12-20T17:52:44.481Z,124.72
2023-12-20T17:55:15.227Z,123.18
2023-12-20T17:57:46.368Z,123.10
2023-12-20T18:00:23.205Z,122.15
2023-12-20T18:02:56.681Z,125.13
2023-12-20T18:05:27.309Z,128.25
2023-12-20T18:07:57.914Z,159.23
2023-12-20T18:10:29.499Z,124.93
2023-12-20T18:13:00.967Z,127.30
2023-12-20T18:15:31.410Z,128.45
2023-12-20T18:18:04.739Z,129.02
2023-12-20T18:20:35.388Z,126.43
2023-12-20T18:23:11.084Z,126.45
2023-12-20T18:25:42.833Z,123.88
2023-12-20T18:28:13.260Z,124.65
2023-12-20T18:30:43.767Z,125.60
2023-12-20T18:33:17.054Z,122.82
2023-12-20T18:35:57.342Z,125.90
2023-12-20T18:38:31.646Z,123.30
2023-12-20T18:41:02.033Z,113.38
2023-12-20T18:43:32.570Z,110.95
2023-12-20T18:46:04.073Z,100.45
2023-12-20T18:48:37.720Z,102.30
2023-12-20T18:51:08.923Z,93.80
2023-12-20T18:53:39.593Z,96.00
2023-12-20T18:56:10.873Z,98.20
2023-12-20T18:58:41.525Z,95.82
2023-12-20T19:01:12.631Z,145.27
2023-12-20T19:03:46.467Z,109.45
2023-12-20T19:06:17.333Z,99.90
2023-12-20T19:08:51.613Z,99.20
2023-12-20T19:11:22.768Z,102.18
2023-12-20T19:13:53.461Z,98.57
2023-12-20T19:16:24.750Z,100.32
2023-12-20T19:18:58.197Z,100.45
2023-12-20T19:21:28.835Z,98.25
2023-12-20T19:24:04.058Z,95.15
2023-12-20T19:26:34.527Z,91.18
2023-12-20T19:29:05.241Z,88.03
2023-12-20T19:31:37.123Z,87.63
2023-12-20T19:34:10.485Z,90.47
2023-12-20T19:36:41.160Z,82.60
2023-12-20T19:39:11.579Z,79.90
2023-12-20T19:41:42.024Z,86.90
2023-12-20T19:44:12.480Z,87.13
2023-12-20T19:46:43.609Z,79.95
2023-12-20T19:49:16.920Z,78.43
2023-12-20T19:51:47.621Z,78.03
2023-12-20T19:54:18.809Z,80.32
2023-12-20T19:59:20.022Z,78.85
2023-12-20T20:01:50.793Z,78.90
2023-12-20T20:06:59.160Z,85.38
2023-12-20T20:12:01.700Z,83.75
2023-12-20T20:14:32.149Z,82.13
2023-12-20T20:17:03.457Z,76.05
2023-12-20T20:19:36.604Z,74.55
2023-12-20T20:22:07.538Z,75.80
2023-12-20T20:27:08.602Z,72.15
2023-12-20T20:29:39.283Z,75.88
2023-12-20T20:32:12.719Z,75.70
2023-12-20T20:34:46.137Z,75.50
2023-12-20T20:37:16.693Z,77.43
2023-12-20T20:39:49.797Z,76.43
2023-12-20T20:42:21.507Z,76.95
2023-12-20T20:44:52.123Z,77.30
2023-12-20T20:47:22.631Z,75.63
2023-12-20T20:49:58.192Z,75.82
2023-12-20T20:52:29.264Z,76.30
2023-12-20T20:55:00.429Z,76.07
2023-12-20T20:57:31.011Z,73.80
2023-12-20T21:00:01.473Z,76.72
2023-12-20T21:02:32.133Z,77.22
2023-12-20T21:05:08.006Z,80.60
2023-12-20T21:07:38.755Z,77.00
2023-12-20T21:10:10.839Z,72.70
2023-12-20T21:12:41.252Z,68.97
2023-12-20T21:15:15.477Z,68.47
2023-12-20T21:17:46.319Z,65.82
2023-12-20T21:20:20.064Z,65.20
2023-12-20T21:22:50.587Z,71.13
2023-12-20T21:25:22.932Z,64.40
2023-12-20T21:27:53.666Z,63.17
2023-12-20T21:30:24.226Z,63.50
2023-12-20T21:32:54.745Z,60.97
2023-12-20T21:35:27.798Z,57.83
2023-12-20T21:37:58.388Z,60.83
2023-12-20T21:40:28.969Z,59.55
2023-12-20T21:42:59.749Z,58.08
2023-12-20T21:45:30.242Z,54.40
2023-12-20T21:48:00.688Z,57.55
2023-12-20T21:50:34.796Z,57.35
2023-12-20T21:53:12.576Z,54.45
2023-12-20T21:55:44.194Z,53.90
2023-12-20T21:58:14.694Z,50.38
2023-12-20T22:00:45.177Z,54.15
2023-12-20T22:03:15.714Z,50.63
2023-12-20T22:05:50.119Z,52.28
2023-12-20T22:08:20.671Z,50.47
2023-12-20T22:10:51.110Z,49.22
2023-12-20T22:13:21.676Z,48.03
2023-12-20T22:15:52.600Z,47.85
2023-12-20T22:18:23.050Z,46.40
2023-12-20T22:20:57.338Z,46.63
2023-12-20T22:23:38.582Z,47.33
2023-12-20T22:26:09.593Z,47.05
2023-12-20T22:28:40.340Z,44.70
2023-12-20T22:31:10.887Z,47.63
2023-12-20T22:33:41.355Z,47.67
2023-12-20T22:36:14.693Z,47.17
2023-12-20T22:38:45.084Z,48.10
2023-12-20T22:41:16.102Z,44.83
2023-12-20T22:46:18.263Z,43.25
2023-12-20T22:48:49.190Z,41.97
2023-12-20T22:51:22.606Z,44.15
2023-12-20T22:53:57.207Z,42.15
2023-12-20T22:56:28.212Z,42.80
2023-12-20T23:01:29.295Z,41.75
2023-12-20T23:06:32.809Z,39.93
2023-12-20T23:09:04.300Z,40.53
2023-12-20T23:11:34.768Z,41.30
2023-12-20T23:14:10.466Z,40.67
2023-12-20T23:16:47.684Z,40.53
2023-12-20T23:19:18.354Z,42.00
2023-12-20T23:21:51.786Z,42.22
2023-12-20T23:24:22.867Z,41.38
2023-12-20T23:26:54.410Z,40.72
2023-12-20T23:29:24.868Z,40.15
2023-12-20T23:31:55.313Z,41.47
2023-12-20T23:34:25.801Z,38.75
2023-12-20T23:36:58.880Z,38.70
2023-12-20T23:39:29.320Z,38.03
2023-12-20T23:41:59.906Z,38.97
2023-12-20T23:44:30.329Z,38.33
2023-12-20T23:47:00.723Z,44.22
2023-12-20T23:49:32.147Z,41.75
2023-12-20T23:52:05.525Z,46.50
2023-12-20T23:54:35.997Z,42.00
2023-12-20T23:57:06.605Z,38.40
2023-12-20T23:59:36.963Z,36.40
